Time;durP1;ratioP1;P1;durP2;ratioP2;P2;SDS_P1;SDS_P2;PMS_P1;PMS_P2;Temp;Humidity;BMP_temperature;BMP_pressure;BME280_temperature;BME280_humidity;BME280_pressure;Samples;Min_cycle;Max_cycle;Signal;HPM_P1;HPM_P2
2021/01/20 00:02:12;;;;;;;33.30;8.85;;;10.70;99.90;;;;;;6183930;23;20090;-85
2021/01/20 00:04:38;;;;;;;25.95;7.53;;;10.70;99.90;;;;;;6185375;23;20096;-85
2021/01/20 00:07:05;;;;;;;36.08;8.68;;;10.70;99.90;;;;;;6184217;23;20037;-84
2021/01/20 00:09:32;;;;;;;24.08;7.85;;;10.80;99.90;;;;;;6184394;23;20390;-85
2021/01/20 00:11:59;;;;;;;29.38;8.90;;;10.80;99.90;;;;;;6185868;23;20017;-85
2021/01/20 00:14:25;;;;;;;28.23;7.95;;;10.80;99.90;;;;;;6183076;23;20065;-86
2021/01/20 00:16:52;;;;;;;28.50;7.82;;;10.70;99.90;;;;;;6184266;23;20052;-86
2021/01/20 00:19:18;;;;;;;26.05;8.00;;;10.80;99.90;;;;;;6183930;23;20020;-86
2021/01/20 00:21:45;;;;;;;26.67;7.68;;;10.80;99.90;;;;;;6183871;23;20096;-86
2021/01/20 00:24:11;;;;;;;22.40;7.55;;;10.80;99.90;;;;;;6184383;23;20099;-86
2021/01/20 00:26:38;;;;;;;27.65;7.88;;;10.80;99.90;;;;;;6184042;23;20025;-86
2021/01/20 00:29:04;;;;;;;24.90;8.07;;;10.80;99.90;;;;;;6184885;23;20452;-86
2021/01/20 00:31:31;;;;;;;21.45;8.63;;;10.70;99.90;;;;;;6184202;23;20373;-85
2021/01/20 00:33:58;;;;;;;32.10;7.78;;;10.70;99.90;;;;;;6184570;23;20021;-86
2021/01/20 00:36:24;;;;;;;23.92;7.93;;;10.70;99.90;;;;;;6184679;23;20025;-86
2021/01/20 00:38:51;;;;;;;26.48;7.55;;;10.70;99.90;;;;;;6185904;23;20114;-85
2021/01/20 00:41:17;;;;;;;34.22;8.10;;;10.70;99.90;;;;;;6184607;23;20087;-85
2021/01/20 00:43:43;;;;;;;29.38;8.25;;;10.60;99.90;;;;;;6184842;23;20041;-86
2021/01/20 00:46:10;;;;;;;23.48;7.25;;;10.60;99.90;;;;;;6183752;23;20027;-85
2021/01/20 00:48:36;;;;;;;30.23;7.82;;;10.60;99.90;;;;;;6184235;23;20013;-86
2021/01/20 00:51:03;;;;;;;22.98;7.45;;;10.60;99.90;;;;;;6184014;23;20013;-86
2021/01/20 00:53:29;;;;;;;24.08;7.50;;;10.60;99.90;;;;;;6183613;23;20028;-85
2021/01/20 00:55:56;;;;;;;19.77;6.78;;;10.60;99.90;;;;;;6184831;23;20056;-86
2021/01/20 00:58:22;;;;;;;21.35;6.25;;;10.60;99.90;;;;;;6184156;23;20020;-86
2021/01/20 01:00:49;;;;;;;20.10;6.03;;;10.60;99.90;;;;;;6184264;23;20017;-86
2021/01/20 01:03:15;;;;;;;18.58;6.00;;;10.60;99.90;;;;;;6189776;23;20020;-87
2021/01/20 01:05:43;;;;;;;21.63;6.38;;;10.60;99.90;;;;;;6195682;23;20096;-86
2021/01/20 01:08:09;;;;;;;22.17;6.25;;;10.60;99.90;;;;;;6184977;23;20445;-86
2021/01/20 01:10:36;;;;;;;20.05;6.68;;;10.60;99.90;;;;;;6184431;23;20061;-86
2021/01/20 01:13:02;;;;;;;24.90;6.07;;;10.60;99.90;;;;;;6183569;23;20356;-86
2021/01/20 01:15:31;;;;;;;18.00;5.80;;;10.60;99.90;;;;;;6183041;23;20025;-85
2021/01/20 01:17:57;;;;;;;26.15;6.18;;;10.70;99.90;;;;;;6185956;23;20092;-86
2021/01/20 01:20:24;;;;;;;27.67;5.65;;;10.60;99.90;;;;;;6186410;23;20068;-86
2021/01/20 01:22:50;;;;;;;21.88;5.05;;;10.70;99.90;;;;;;6186365;23;20017;-87
2021/01/20 01:25:17;;;;;;;18.42;4.82;;;10.70;99.90;;;;;;6185943;23;20017;-86
2021/01/20 01:27:43;;;;;;;18.60;5.82;;;10.70;99.90;;;;;;6185479;23;20098;-87
2021/01/20 01:30:10;;;;;;;16.98;4.97;;;10.70;99.90;;;;;;6186092;23;20032;-86
2021/01/20 01:32:37;;;;;;;21.20;5.75;;;10.70;99.90;;;;;;6185424;23;20067;-86
2021/01/20 01:35:03;;;;;;;22.15;4.55;;;10.70;99.90;;;;;;6185831;23;20578;-87
2021/01/20 01:37:30;;;;;;;15.82;4.50;;;10.70;99.90;;;;;;6185259;23;20021;-86
2021/01/20 01:39:56;;;;;;;18.02;4.70;;;10.80;99.90;;;;;;6185290;23;20453;-86
2021/01/20 01:42:27;;;;;;;24.60;6.22;;;10.80;99.90;;;;;;6187064;23;20441;-86
2021/01/20 01:44:55;;;;;;;16.75;5.18;;;10.80;99.90;;;;;;6186227;23;20032;-87
2021/01/20 01:47:22;;;;;;;21.20;5.38;;;10.80;99.90;;;;;;6185565;23;20017;-87
2021/01/20 01:49:49;;;;;;;22.45;5.30;;;10.80;99.90;;;;;;6185781;23;20096;-87
2021/01/20 01:52:16;;;;;;;23.20;5.57;;;10.80;99.90;;;;;;6185645;23;20029;-87
2021/01/20 01:54:44;;;;;;;17.48;5.57;;;10.90;99.90;;;;;;6185370;23;20017;-86
2021/01/20 01:57:12;;;;;;;21.77;5.93;;;10.90;99.90;;;;;;6185437;23;20044;-87
2021/01/20 01:59:38;;;;;;;19.60;6.43;;;10.90;99.90;;;;;;6185575;23;20017;-86
2021/01/20 02:02:05;;;;;;;29.92;6.90;;;10.90;99.90;;;;;;6186090;23;20031;-86
2021/01/20 02:04:32;;;;;;;24.63;7.55;;;11.00;99.90;;;;;;6185359;23;20013;-87
2021/01/20 02:06:59;;;;;;;23.63;7.10;;;11.00;99.90;;;;;;6185411;23;20051;-87
2021/01/20 02:09:26;;;;;;;24.02;8.10;;;11.00;99.90;;;;;;6185619;23;20028;-86
2021/01/20 02:12:04;;;;;;;18.58;7.68;;;11.00;99.90;;;;;;6185173;23;20021;-87
2021/01/20 02:14:58;;;;;;;24.52;8.43;;;11.00;99.90;;;;;;6184603;23;20021;-87
2021/01/20 02:17:35;;;;;;;28.83;9.50;;;10.90;99.90;;;;;;6184951;23;20500;-86
2021/01/20 02:20:28;;;;;;;21.75;8.75;;;10.90;99.90;;;;;;6185316;23;20511;-87
2021/01/20 02:22:58;;;;;;;24.50;10.00;;;10.90;99.90;;;;;;6178736;23;20020;-87
2021/01/20 02:26:06;;;;;;;19.40;10.55;;;10.80;99.90;;;;;;6185106;23;20021;-86
2021/01/20 02:28:52;;;;;;;27.33;11.43;;;10.80;99.90;;;;;;6100406;23;20076;-86
2021/01/20 02:31:23;;;;;;;23.48;11.35;;;10.70;99.90;;;;;;6009562;23;20094;-86
2021/01/20 02:33:52;;;;;;;26.65;12.13;;;10.70;99.90;;;;;;6010021;23;20023;-86
2021/01/20 02:36:21;;;;;;;22.50;11.90;;;10.60;99.90;;;;;;6023039;23;20023;-86
2021/01/20 02:38:48;;;;;;;26.48;12.43;;;10.60;99.90;;;;;;6012805;23;20027;-86
2021/01/20 02:41:28;;;;;;;30.98;11.75;;;10.60;99.90;;;;;;6009543;23;20088;-86
2021/01/20 02:43:59;;;;;;;30.98;12.13;;;10.60;99.90;;;;;;6009846;23;20020;-87
2021/01/20 02:46:26;;;;;;;26.92;12.15;;;10.50;99.90;;;;;;6009537;23;20031;-87
2021/01/20 02:48:54;;;;;;;30.90;12.25;;;10.50;99.90;;;;;;6009511;23;20023;-87
2021/01/20 02:51:45;;;;;;;29.70;11.77;;;10.50;99.90;;;;;;6009034;23;20081;-87
2021/01/20 02:54:14;;;;;;;30.00;12.10;;;10.50;99.90;;;;;;6008958;23;20024;-86
2021/01/20 02:56:46;;;;;;;30.30;11.57;;;10.50;99.90;;;;;;6009136;23;20024;-86
2021/01/20 02:59:13;;;;;;;30.80;11.35;;;10.40;99.90;;;;;;6051149;23;20093;-87
2021/01/20 03:02:01;;;;;;;29.80;10.43;;;10.40;99.90;;;;;;6071449;23;20033;-87
2021/01/20 03:04:30;;;;;;;39.20;10.77;;;10.40;99.90;;;;;;6071010;23;20367;-87
2021/01/20 03:06:57;;;;;;;35.47;10.73;;;10.40;99.90;;;;;;6071222;23;20038;-87
2021/01/20 03:09:23;;;;;;;33.13;11.40;;;10.40;99.90;;;;;;6177903;23;20017;-86
2021/01/20 03:11:52;;;;;;;33.38;10.55;;;10.50;99.90;;;;;;6184440;23;20036;-87
2021/01/20 03:14:21;;;;;;;29.20;10.18;;;10.40;99.90;;;;;;6183778;23;20013;-86
2021/01/20 03:16:48;;;;;;;28.52;9.93;;;10.50;99.90;;;;;;6185072;23;20449;-87
2021/01/20 03:19:15;;;;;;;22.05;8.77;;;10.50;99.90;;;;;;6184821;23;20024;-86
2021/01/20 03:21:41;;;;;;;33.67;9.50;;;10.50;99.90;;;;;;6184391;23;20071;-87
2021/01/20 03:24:08;;;;;;;30.00;9.38;;;10.50;99.90;;;;;;6184538;23;20040;-86
2021/01/20 03:26:34;;;;;;;31.25;8.52;;;10.50;99.90;;;;;;6184727;23;20024;-86
2021/01/20 03:29:01;;;;;;;21.73;8.55;;;10.60;99.90;;;;;;6185033;23;20017;-87
2021/01/20 03:31:28;;;;;;;23.48;8.15;;;10.60;99.90;;;;;;6184920;23;20075;-86
2021/01/20 03:33:54;;;;;;;28.15;8.48;;;10.60;99.90;;;;;;6184832;23;20333;-86
2021/01/20 03:36:21;;;;;;;33.25;8.23;;;10.60;99.90;;;;;;6185274;23;20013;-86
2021/01/20 03:38:47;;;;;;;26.67;7.38;;;10.60;99.90;;;;;;6184644;23;20036;-87
2021/01/20 03:41:14;;;;;;;23.55;8.68;;;10.60;99.90;;;;;;6184797;23;20028;-86
2021/01/20 03:43:40;;;;;;;23.63;7.55;;;10.60;99.90;;;;;;6184837;23;20013;-87
2021/01/20 03:46:07;;;;;;;21.73;8.15;;;10.70;99.90;;;;;;6184434;23;20096;-86
2021/01/20 03:48:34;;;;;;;24.85;7.50;;;10.70;99.90;;;;;;6184435;23;20318;-87
2021/01/20 03:51:01;;;;;;;18.48;8.05;;;10.70;99.90;;;;;;6184207;23;20024;-86
2021/01/20 03:53:28;;;;;;;24.05;7.45;;;10.80;99.90;;;;;;6184735;23;20024;-86
2021/01/20 03:55:54;;;;;;;24.98;7.57;;;10.80;99.90;;;;;;6184778;23;20013;-87
2021/01/20 03:58:21;;;;;;;20.48;6.68;;;10.80;99.90;;;;;;6184708;23;20017;-87
2021/01/20 04:00:47;;;;;;;17.48;7.18;;;10.80;99.90;;;;;;6184421;23;20069;-87
2021/01/20 04:03:14;;;;;;;26.73;7.35;;;10.80;99.90;;;;;;6184874;23;20021;-86
2021/01/20 04:05:40;;;;;;;18.13;6.47;;;10.90;99.90;;;;;;6186397;23;20381;-86
2021/01/20 04:08:07;;;;;;;15.60;6.07;;;10.90;99.90;;;;;;6200521;23;20064;-86
2021/01/20 04:10:33;;;;;;;17.52;6.55;;;10.80;99.90;;;;;;6186498;23;20016;-86
2021/01/20 04:13:00;;;;;;;17.67;5.70;;;10.80;99.90;;;;;;6184462;23;20025;-87
2021/01/20 04:15:26;;;;;;;22.27;6.13;;;10.80;99.90;;;;;;6183335;23;20028;-86
2021/01/20 04:17:53;;;;;;;26.67;6.10;;;10.80;99.90;;;;;;6184199;23;20445;-86
2021/01/20 04:20:19;;;;;;;18.05;5.45;;;10.80;99.90;;;;;;6183959;23;20017;-86
2021/01/20 04:22:46;;;;;;;21.38;5.07;;;10.80;99.90;;;;;;6184022;23;20079;-86
2021/01/20 04:25:12;;;;;;;16.88;5.03;;;10.80;99.90;;;;;;6183779;23;20441;-86
2021/01/20 04:27:39;;;;;;;13.63;4.25;;;10.80;99.90;;;;;;6184258;23;20023;-86
2021/01/20 04:30:06;;;;;;;17.98;4.53;;;10.80;99.90;;;;;;6185860;23;20623;-86
2021/01/20 04:32:33;;;;;;;12.75;4.45;;;10.80;99.90;;;;;;6184106;23;20020;-86
2021/01/20 04:34:59;;;;;;;19.55;4.35;;;10.80;99.90;;;;;;6184814;23;20044;-86
2021/01/20 04:37:26;;;;;;;16.08;4.25;;;10.90;99.90;;;;;;6184982;23;20032;-86
2021/01/20 04:39:52;;;;;;;18.77;4.70;;;10.90;99.90;;;;;;6183591;23;20013;-86
2021/01/20 04:42:19;;;;;;;12.73;4.95;;;10.90;99.90;;;;;;6183775;23;20028;-86
2021/01/20 04:44:48;;;;;;;20.15;5.72;;;10.90;99.90;;;;;;6183852;23;20021;-86
2021/01/20 04:47:16;;;;;;;14.52;4.78;;;11.00;99.90;;;;;;6184598;23;20024;-85
2021/01/20 04:49:47;;;;;;;13.77;5.05;;;11.00;99.90;;;;;;6184090;23;20017;-86
2021/01/20 04:52:20;;;;;;;14.80;4.32;;;11.00;99.90;;;;;;6185846;23;20027;-86
2021/01/20 04:54:48;;;;;;;16.73;4.72;;;11.00;99.90;;;;;;6186167;23;20025;-86
2021/01/20 04:57:15;;;;;;;15.38;4.68;;;11.00;99.90;;;;;;6186383;23;20043;-86
2021/01/20 04:59:42;;;;;;;13.73;4.90;;;11.00;99.90;;;;;;6185849;23;20021;-86
2021/01/20 05:02:11;;;;;;;12.20;3.70;;;11.00;99.90;;;;;;6186108;23;20020;-85
2021/01/20 05:04:41;;;;;;;11.50;4.15;;;11.00;99.90;;;;;;6185662;23;20076;-86
2021/01/20 05:07:09;;;;;;;14.15;4.80;;;11.00;99.90;;;;;;6186370;23;20103;-86
2021/01/20 05:09:36;;;;;;;11.07;4.18;;;10.90;99.90;;;;;;6185817;23;20021;-86
2021/01/20 05:12:02;;;;;;;16.10;4.22;;;10.90;99.90;;;;;;6186279;23;20024;-86
2021/01/20 05:14:29;;;;;;;12.93;3.70;;;10.90;99.90;;;;;;6184914;23;20377;-86
2021/01/20 05:17:06;;;;;;;15.32;3.90;;;10.90;99.90;;;;;;6186377;23;20025;-86
2021/01/20 05:19:38;;;;;;;19.42;4.28;;;10.90;99.90;;;;;;6186513;23;20329;-86
2021/01/20 05:22:07;;;;;;;16.75;4.70;;;10.90;99.90;;;;;;6185811;23;20035;-85
2021/01/20 05:24:35;;;;;;;12.20;4.30;;;10.90;99.90;;;;;;6186017;23;20306;-85
2021/01/20 05:27:02;;;;;;;13.85;3.90;;;10.80;99.90;;;;;;6186169;23;20021;-85
2021/01/20 05:29:29;;;;;;;21.83;5.35;;;10.70;99.90;;;;;;6186002;23;20025;-85
2021/01/20 05:31:55;;;;;;;12.07;4.32;;;10.70;99.90;;;;;;6186228;23;20017;-86
2021/01/20 05:34:26;;;;;;;11.75;3.65;;;10.70;99.90;;;;;;6185927;23;20021;-85
2021/01/20 05:37:10;;;;;;;11.90;3.58;;;10.70;99.90;;;;;;6186927;23;20075;-85
2021/01/20 05:39:39;;;;;;;10.65;3.78;;;10.70;99.90;;;;;;6200768;23;20021;-85
2021/01/20 05:42:08;;;;;;;17.27;4.13;;;10.70;99.90;;;;;;6187879;23;20377;-89
2021/01/20 05:44:36;;;;;;;12.68;3.70;;;10.60;99.90;;;;;;6185820;23;20017;-87
2021/01/20 05:47:10;;;;;;;14.95;3.55;;;10.60;99.90;;;;;;6185740;23;20027;-88
2021/01/20 05:49:38;;;;;;;13.57;3.83;;;10.60;99.90;;;;;;6185268;23;20525;-87
2021/01/20 05:52:15;;;;;;;10.90;3.53;;;10.60;99.90;;;;;;6185419;23;20028;-87
2021/01/20 05:54:42;;;;;;;13.90;3.88;;;10.60;99.90;;;;;;6185562;23;20020;-86
2021/01/20 05:57:19;;;;;;;11.77;4.07;;;10.60;99.90;;;;;;6185435;23;20013;-87
2021/01/20 05:59:48;;;;;;;17.50;4.28;;;10.60;99.90;;;;;;6185816;23;20040;-87
2021/01/20 06:02:17;;;;;;;21.10;4.25;;;10.60;99.90;;;;;;6184869;23;20078;-87
2021/01/20 06:04:44;;;;;;;16.98;3.85;;;10.60;99.90;;;;;;6185792;23;20017;-87
2021/01/20 06:07:13;;;;;;;14.60;4.05;;;10.60;99.90;;;;;;6185065;23;20028;-87
2021/01/20 06:09:45;;;;;;;16.98;4.82;;;10.60;99.90;;;;;;6186673;23;20068;-87
2021/01/20 06:12:14;;;;;;;15.07;3.75;;;10.60;99.90;;;;;;6185513;23;20024;-87
2021/01/20 06:14:41;;;;;;;16.08;4.05;;;10.60;99.90;;;;;;6184464;23;20475;-86
2021/01/20 06:17:15;;;;;;;;;;;10.60;99.90;;;;;;6186312;23;20051;-87
2021/01/20 06:19:55;;;;;;;20.52;4.95;;;10.60;99.90;;;;;;6185181;23;20317;-86
2021/01/20 06:22:22;;;;;;;17.02;4.40;;;10.60;99.90;;;;;;6184840;23;20024;-86
2021/01/20 06:24:50;;;;;;;19.92;4.68;;;10.60;99.90;;;;;;6184591;23;20014;-86
2021/01/20 06:27:41;;;;;;;14.80;3.95;;;10.60;99.90;;;;;;6184824;23;20024;-86
2021/01/20 06:30:23;;;;;;;24.45;4.93;;;10.60;99.90;;;;;;6185322;23;20024;-86
2021/01/20 06:32:50;;;;;;;15.15;3.95;;;10.60;99.90;;;;;;6184606;23;20017;-86
2021/01/20 06:35:17;;;;;;;18.33;4.25;;;10.60;99.90;;;;;;6185411;23;20020;-86
2021/01/20 06:37:45;;;;;;;18.67;4.90;;;10.60;99.90;;;;;;6185499;23;20032;-87
2021/01/20 06:40:12;;;;;;;16.97;4.53;;;10.70;99.90;;;;;;6184928;23;20017;-86
2021/01/20 06:42:38;;;;;;;19.20;4.40;;;10.70;99.90;;;;;;6184960;23;20270;-86
2021/01/20 06:45:22;;;;;;;17.33;4.45;;;10.70;99.90;;;;;;6185003;23;20044;-87
2021/01/20 06:47:58;;;;;;;16.35;4.05;;;10.70;99.90;;;;;;6185347;23;20025;-86
2021/01/20 06:50:33;;;;;;;20.92;4.57;;;10.70;99.90;;;;;;6184842;23;20091;-86
2021/01/20 06:53:04;;;;;;;18.05;5.00;;;10.70;99.90;;;;;;6185317;23;20059;-86
2021/01/20 06:55:38;;;;;;;18.75;3.95;;;10.70;99.90;;;;;;6184839;23;20017;-87
2021/01/20 06:58:31;;;;;;;18.80;4.78;;;10.70;99.90;;;;;;6184400;23;20101;-87
2021/01/20 07:01:00;;;;;;;23.08;5.20;;;10.70;99.90;;;;;;6184462;23;20028;-87
2021/01/20 07:03:42;;;;;;;18.63;5.55;;;10.60;99.90;;;;;;6184539;23;20021;-87
2021/01/20 07:06:33;;;;;;;17.55;5.03;;;10.70;99.90;;;;;;6184763;23;20017;-87
2021/01/20 07:09:09;;;;;;;17.77;5.50;;;10.70;99.90;;;;;;6185429;23;20317;-87
2021/01/20 07:12:06;;;;;;;22.58;5.15;;;10.70;99.90;;;;;;6184146;23;20040;-88
2021/01/20 07:14:32;;;;;;;15.68;4.78;;;10.60;99.90;;;;;;6183315;23;20020;-87
2021/01/20 07:17:00;;;;;;;18.40;6.10;;;10.70;99.90;;;;;;6185582;23;20060;-87
2021/01/20 07:19:27;;;;;;;11.77;4.50;;;10.60;99.90;;;;;;6184256;23;20028;-85
2021/01/20 07:21:54;;;;;;;18.15;4.53;;;10.70;99.90;;;;;;6183908;23;20016;-88
2021/01/20 07:24:21;;;;;;;12.98;4.22;;;10.70;99.90;;;;;;6184760;23;20021;-89
2021/01/20 07:26:48;;;;;;;16.20;4.68;;;10.70;99.90;;;;;;6184780;23;20017;-89
2021/01/20 07:29:18;;;;;;;14.90;4.70;;;10.70;99.90;;;;;;6185023;23;20020;-89
2021/01/20 07:31:50;;;;;;;16.05;4.75;;;10.70;99.90;;;;;;6184644;23;20023;-88
2021/01/20 07:34:17;;;;;;;18.60;4.18;;;10.70;99.90;;;;;;6184543;23;20021;-88
2021/01/20 07:36:45;;;;;;;12.63;4.38;;;10.70;99.90;;;;;;6184828;23;20364;-88
2021/01/20 07:39:22;;;;;;;17.65;5.20;;;10.70;99.90;;;;;;6184574;23;20072;-88
2021/01/20 07:41:56;;;;;;;14.35;5.13;;;10.70;99.90;;;;;;6184491;23;20028;-88
2021/01/20 07:44:24;;;;;;;12.95;4.15;;;10.70;99.90;;;;;;6184898;23;20017;-89
2021/01/20 07:47:04;;;;;;;22.42;4.97;;;10.70;99.90;;;;;;6185052;23;20017;-88
2021/01/20 07:49:35;;;;;;;13.80;3.85;;;10.70;99.90;;;;;;6184377;23;20028;-88
2021/01/20 07:52:09;;;;;;;13.02;3.67;;;10.70;99.90;;;;;;6184277;23;20021;-88
2021/01/20 07:54:40;;;;;;;17.00;4.07;;;10.70;99.90;;;;;;6184498;23;20021;-88
2021/01/20 07:57:08;;;;;;;11.32;3.50;;;10.80;99.90;;;;;;6184904;23;20047;-88
2021/01/20 07:59:35;;;;;;;16.83;3.90;;;10.80;99.90;;;;;;6184722;23;20021;-88
2021/01/20 08:02:09;;;;;;;11.50;4.13;;;10.80;99.90;;;;;;6185198;23;20032;-88
2021/01/20 08:04:37;;;;;;;11.63;3.63;;;10.80;99.90;;;;;;6184559;23;20013;-89
2021/01/20 08:07:06;;;;;;;10.93;3.57;;;10.80;99.90;;;;;;6184325;23;20017;-88
2021/01/20 08:09:40;;;;;;;11.68;3.35;;;10.90;99.90;;;;;;6184395;23;20264;-88
2021/01/20 08:12:09;;;;;;;12.80;3.67;;;10.80;99.90;;;;;;6184467;23;20021;-88
2021/01/20 08:14:37;;;;;;;12.15;4.55;;;10.80;99.90;;;;;;6183150;23;20017;-88
2021/01/20 08:17:06;;;;;;;16.85;3.75;;;10.80;99.90;;;;;;6184577;23;20017;-88
2021/01/20 08:19:34;;;;;;;13.05;4.10;;;10.80;99.90;;;;;;6184652;23;20369;-88
2021/01/20 08:22:06;;;;;;;13.17;3.90;;;10.80;99.90;;;;;;6184455;23;20017;-88
2021/01/20 08:24:33;;;;;;;14.05;3.63;;;10.80;99.90;;;;;;6184346;23;20321;-88
2021/01/20 08:27:01;;;;;;;15.90;3.85;;;10.70;99.90;;;;;;6184455;23;20013;-88
2021/01/20 08:29:28;;;;;;;14.33;4.30;;;10.70;99.90;;;;;;6183830;23;20021;-88
2021/01/20 08:32:11;;;;;;;11.88;3.40;;;10.70;99.90;;;;;;6183983;23;20021;-88
2021/01/20 08:34:40;;;;;;;15.95;4.18;;;10.70;99.90;;;;;;6185576;23;20025;-88
2021/01/20 08:37:09;;;;;;;18.77;4.03;;;10.60;99.90;;;;;;6183730;23;20437;-88
2021/01/20 08:39:54;;;;;;;13.55;4.03;;;10.60;99.90;;;;;;6185920;23;20020;-88
2021/01/20 08:42:27;;;;;;;18.75;4.60;;;10.60;99.90;;;;;;6184377;23;20229;-88
2021/01/20 08:45:17;;;;;;;18.17;4.53;;;10.60;99.90;;;;;;6184345;23;20073;-89
2021/01/20 08:47:47;;;;;;;15.65;4.03;;;10.60;99.90;;;;;;6185142;23;20020;-88
2021/01/20 08:50:36;;;;;;;16.20;4.30;;;10.60;99.90;;;;;;6185108;23;20025;-88
2021/01/20 08:53:29;;;;;;;16.83;4.10;;;10.60;99.90;;;;;;6184260;23;20021;-88
2021/01/20 08:55:56;;;;;;;18.38;4.53;;;10.60;99.90;;;;;;6181875;23;20112;-88
2021/01/20 08:58:31;;;;;;;24.25;5.90;;;10.60;99.90;;;;;;6184133;23;20297;-89
2021/01/20 09:01:09;;;;;;;16.58;4.57;;;10.60;99.90;;;;;;6183651;23;20512;-89
2021/01/20 09:03:37;;;;;;;19.13;4.43;;;10.60;99.90;;;;;;6184279;23;20428;-88
2021/01/20 09:06:16;;;;;;;18.77;5.18;;;10.50;99.90;;;;;;6184142;23;20020;-88
2021/01/20 09:08:42;;;;;;;17.38;4.68;;;10.50;99.90;;;;;;6183898;23;20017;-88
2021/01/20 09:11:09;;;;;;;15.30;4.50;;;10.50;99.90;;;;;;6184400;23;20079;-88
2021/01/20 09:13:36;;;;;;;13.27;4.18;;;10.50;99.90;;;;;;6183064;23;20322;-88
2021/01/20 09:16:02;;;;;;;18.42;4.57;;;10.50;99.90;;;;;;6183922;23;20452;-88
2021/01/20 09:18:29;;;;;;;16.65;4.45;;;10.50;99.90;;;;;;6184390;23;20028;-88
2021/01/20 09:20:56;;;;;;;11.25;3.70;;;10.50;99.90;;;;;;6184313;23;20025;-88
2021/01/20 09:23:23;;;;;;;20.50;4.80;;;10.50;99.90;;;;;;6183589;23;20017;-88
2021/01/20 09:25:50;;;;;;;14.82;4.38;;;10.50;99.90;;;;;;6183960;23;20028;-88
2021/01/20 09:28:16;;;;;;;18.02;5.03;;;10.50;99.90;;;;;;6183830;23;20017;-88
2021/01/20 09:30:43;;;;;;;19.58;4.30;;;10.50;99.90;;;;;;6183844;23;20017;-88
2021/01/20 09:33:10;;;;;;;17.38;4.20;;;10.50;99.90;;;;;;6184268;23;20024;-88
2021/01/20 09:35:37;;;;;;;17.50;4.38;;;10.60;99.90;;;;;;6184051;23;20433;-88
2021/01/20 09:38:05;;;;;;;18.02;4.88;;;10.60;99.90;;;;;;6186116;23;20017;-88
2021/01/20 09:40:33;;;;;;;19.03;4.43;;;10.60;99.90;;;;;;6185974;23;20013;-88
2021/01/20 09:43:00;;;;;;;23.30;5.63;;;10.60;99.90;;;;;;6185681;23;20597;-88
2021/01/20 09:45:29;;;;;;;16.25;4.55;;;10.60;99.90;;;;;;6185898;23;20365;-88
2021/01/20 09:47:57;;;;;;;18.40;4.25;;;10.60;99.90;;;;;;6185804;23;20024;-88
2021/01/20 09:50:26;;;;;;;17.25;4.55;;;10.70;99.90;;;;;;6186087;23;20088;-88
2021/01/20 09:52:53;;;;;;;15.38;4.72;;;10.70;99.90;;;;;;6185775;23;20479;-88
2021/01/20 09:55:20;;;;;;;20.48;4.93;;;10.80;99.90;;;;;;6185181;23;20805;-88
2021/01/20 09:57:47;;;;;;;15.25;3.50;;;10.80;99.90;;;;;;6185773;23;20017;-88
2021/01/20 10:00:14;;;;;;;18.25;4.45;;;10.90;99.90;;;;;;6185763;23;20013;-88
2021/01/20 10:02:41;;;;;;;18.15;4.30;;;10.90;99.90;;;;;;6185792;23;20017;-88
2021/01/20 10:05:09;;;;;;;13.18;3.92;;;11.00;99.90;;;;;;6186055;23;20067;-88
2021/01/20 10:07:38;;;;;;;17.60;4.13;;;11.00;99.90;;;;;;6185698;23;20017;-88
2021/01/20 10:10:09;;;;;;;17.63;4.50;;;11.00;99.90;;;;;;6185105;23;20013;-88
2021/01/20 10:12:37;;;;;;;21.67;4.82;;;11.00;99.90;;;;;;6185404;23;20043;-88
2021/01/20 10:15:06;;;;;;;17.95;4.55;;;11.00;99.90;;;;;;6184969;23;20025;-89
2021/01/20 10:17:33;;;;;;;15.23;4.20;;;11.00;99.90;;;;;;6185395;23;20307;-89
2021/01/20 10:20:00;;;;;;;19.15;3.88;;;11.00;99.90;;;;;;6186095;23;20425;-88
2021/01/20 10:22:27;;;;;;;12.95;3.97;;;11.00;99.90;;;;;;6185492;23;20364;-89
2021/01/20 10:24:54;;;;;;;24.20;4.50;;;11.00;99.90;;;;;;6185104;23;20013;-88
2021/01/20 10:27:20;;;;;;;15.05;4.53;;;11.10;99.90;;;;;;6185330;23;20073;-89
2021/01/20 10:29:47;;;;;;;15.55;3.78;;;11.00;99.90;;;;;;6186241;23;20017;-89
2021/01/20 10:32:14;;;;;;;19.55;3.95;;;11.10;99.90;;;;;;6186188;23;20448;-88
2021/01/20 10:34:41;;;;;;;30.67;5.30;;;11.10;99.90;;;;;;6185492;23;20013;-88
2021/01/20 10:37:07;;;;;;;14.32;4.15;;;11.10;99.90;;;;;;6184752;23;20017;-89
2021/01/20 10:39:34;;;;;;;12.90;3.83;;;11.10;99.90;;;;;;6184660;23;20013;-88
2021/01/20 10:42:00;;;;;;;14.93;3.97;;;11.10;99.90;;;;;;6184799;23;20125;-88
2021/01/20 10:44:27;;;;;;;22.00;4.63;;;11.10;99.90;;;;;;6185754;23;20039;-89
2021/01/20 10:46:54;;;;;;;23.75;5.55;;;11.10;99.90;;;;;;6186252;23;20017;-89
2021/01/20 10:49:21;;;;;;;18.77;4.55;;;11.10;99.90;;;;;;6185360;23;20021;-88
2021/01/20 10:51:48;;;;;;;20.20;4.72;;;11.10;99.90;;;;;;6185041;23;20052;-88
2021/01/20 10:54:15;;;;;;;17.85;4.45;;;11.10;99.90;;;;;;6185487;23;20017;-88
2021/01/20 10:56:41;;;;;;;19.17;4.65;;;11.10;99.90;;;;;;6185251;23;20013;-88
2021/01/20 10:59:08;;;;;;;20.23;4.53;;;11.10;99.90;;;;;;6185317;23;20100;-88
2021/01/20 11:01:36;;;;;;;18.88;4.82;;;11.20;99.90;;;;;;6185266;23;20020;-89
2021/01/20 11:04:02;;;;;;;26.13;4.90;;;11.20;99.90;;;;;;6184973;23;20013;-88
2021/01/20 11:06:29;;;;;;;22.65;4.85;;;11.20;99.90;;;;;;6185302;23;20052;-88
2021/01/20 11:08:59;;;;;;;22.25;4.72;;;11.20;99.90;;;;;;6185617;23;21037;-89
2021/01/20 11:11:26;;;;;;;17.17;4.43;;;11.20;99.90;;;;;;6185114;23;20024;-89
2021/01/20 11:13:54;;;;;;;23.30;4.57;;;11.20;99.90;;;;;;6184040;23;20017;-89
2021/01/20 11:16:21;;;;;;;23.88;4.70;;;11.20;99.90;;;;;;6184579;23;20036;-89
2021/01/20 11:18:47;;;;;;;17.27;5.43;;;11.20;99.90;;;;;;6185168;23;20333;-89
2021/01/20 11:21:16;;;;;;;19.40;7.45;;;11.20;99.90;;;;;;6185019;23;20017;-88
2021/01/20 11:23:43;;;;;;;16.60;4.57;;;11.30;99.90;;;;;;6185264;23;20023;-88
2021/01/20 11:26:10;;;;;;;17.58;4.03;;;11.30;99.90;;;;;;6185551;23;20019;-89
2021/01/20 11:28:37;;;;;;;14.77;3.92;;;11.30;99.90;;;;;;6184561;23;20021;-89
2021/01/20 11:31:04;;;;;;;23.65;6.40;;;11.30;99.90;;;;;;6184741;23;20069;-88
2021/01/20 11:33:38;;;;;;;23.17;4.65;;;11.30;99.90;;;;;;6184765;23;20017;-88
2021/01/20 11:36:06;;;;;;;20.80;5.25;;;11.40;99.90;;;;;;6184509;23;20067;-89
2021/01/20 11:38:33;;;;;;;20.17;4.30;;;11.40;99.90;;;;;;6184924;23;20024;-88
2021/01/20 11:41:00;;;;;;;25.50;5.95;;;11.40;99.90;;;;;;6185316;23;20017;-89
2021/01/20 11:43:27;;;;;;;26.08;4.95;;;11.40;99.90;;;;;;6185020;23;20013;-89
2021/01/20 11:45:54;;;;;;;22.48;4.97;;;11.40;99.90;;;;;;6185090;23;20044;-89
2021/01/20 11:48:20;;;;;;;29.15;5.30;;;11.40;99.90;;;;;;6185073;23;20017;-88
2021/01/20 11:50:47;;;;;;;20.70;4.25;;;11.40;99.90;;;;;;6184638;23;20020;-89
2021/01/20 11:53:20;;;;;;;20.60;4.40;;;11.50;99.90;;;;;;6184664;23;20027;-89
2021/01/20 11:55:47;;;;;;;17.92;4.25;;;11.50;99.90;;;;;;6184668;23;20024;-90
2021/01/20 11:58:14;;;;;;;27.73;5.35;;;11.50;99.90;;;;;;6184050;23;20048;-88
2021/01/20 12:00:41;;;;;;;20.45;5.03;;;11.50;99.90;;;;;;6184429;23;20014;-88
2021/01/20 12:03:08;;;;;;;25.05;5.10;;;11.60;99.90;;;;;;6185063;23;20017;-88
2021/01/20 12:05:35;;;;;;;22.25;4.65;;;11.60;99.90;;;;;;6184527;23;20028;-88
2021/01/20 12:08:01;;;;;;;22.38;4.60;;;11.60;99.90;;;;;;6184584;23;20048;-89
2021/01/20 12:10:28;;;;;;;13.13;3.80;;;11.60;99.90;;;;;;6184726;23;20096;-88
2021/01/20 12:12:55;;;;;;;25.50;5.10;;;11.60;99.90;;;;;;6184755;23;20025;-88
2021/01/20 12:15:21;;;;;;;21.42;4.53;;;11.60;99.90;;;;;;6184118;23;20033;-88
2021/01/20 12:17:48;;;;;;;15.60;3.47;;;11.70;99.90;;;;;;6185119;23;20044;-89
2021/01/20 12:20:15;;;;;;;21.95;4.45;;;11.80;99.90;;;;;;6184566;23;20088;-90
2021/01/20 12:22:42;;;;;;;20.92;4.55;;;11.90;99.90;;;;;;6184410;23;20024;-90
2021/01/20 12:25:09;;;;;;;19.23;3.70;;;11.90;99.90;;;;;;6184541;23;20021;-90
2021/01/20 12:27:38;;;;;;;19.77;4.00;;;12.00;99.90;;;;;;6184285;23;20017;-90
2021/01/20 12:30:06;;;;;;;19.90;4.50;;;12.10;99.90;;;;;;6184488;23;20021;-90
2021/01/20 12:32:33;;;;;;;19.55;4.53;;;12.20;99.90;;;;;;6184635;23;20017;-90
2021/01/20 12:34:59;;;;;;;25.55;4.28;;;12.20;99.90;;;;;;6184906;23;20017;-90
2021/01/20 12:37:26;;;;;;;18.73;4.15;;;12.30;99.90;;;;;;6184519;23;20017;-89
2021/01/20 12:39:53;;;;;;;24.60;4.30;;;12.40;99.90;;;;;;6184002;23;20021;-89
2021/01/20 12:42:19;;;;;;;17.08;4.05;;;12.40;99.90;;;;;;6184683;23;20040;-90
2021/01/20 12:44:46;;;;;;;17.65;3.78;;;12.50;99.90;;;;;;6183906;23;20326;-89
2021/01/20 12:47:12;;;;;;;25.45;3.97;;;12.50;99.90;;;;;;6184280;23;20452;-89